Time;durP1;ratioP1;P1;durP2;ratioP2;P2;SDS_P1;SDS_P2;PMS_P1;PMS_P2;Temp;Humidity;BMP_temperature;BMP_pressure;BME280_temperature;BME280_humidity;BME280_pressure;Samples;Min_cycle;Max_cycle;Signal;HPM_P1;HPM_P2
2021/06/16 00:00:47;;;;;;;1.60;1.30;;;19.60;94.00;;;;;;5132903;27;20206;-74
2021/06/16 00:03:15;;;;;;;2.17;1.47;;;19.60;93.90;;;;;;5132632;27;20205;-74
2021/06/16 00:05:43;;;;;;;1.97;1.33;;;19.50;93.80;;;;;;5132500;27;20240;-74
2021/06/16 00:08:10;;;;;;;2.93;1.20;;;19.50;93.80;;;;;;5132598;27;20715;-74
2021/06/16 00:10:37;;;;;;;2.30;1.40;;;19.50;93.70;;;;;;5132711;27;20250;-74
2021/06/16 00:13:04;;;;;;;1.60;1.50;;;19.50;93.70;;;;;;5132392;27;20205;-74
2021/06/16 00:15:34;;;;;;;4.57;1.40;;;19.50;93.80;;;;;;5132155;27;20854;-74
2021/06/16 00:18:00;;;;;;;1.53;1.27;;;19.50;93.70;;;;;;5132300;27;20667;-74
2021/06/16 00:20:28;;;;;;;3.33;1.60;;;19.40;93.30;;;;;;5132423;27;20246;-74
2021/06/16 00:22:56;;;;;;;2.93;1.83;;;19.40;93.10;;;;;;5132304;27;20251;-74
2021/06/16 00:25:23;;;;;;;2.33;1.50;;;19.40;93.10;;;;;;5132195;27;20197;-74
2021/06/16 00:27:49;;;;;;;3.53;1.50;;;19.40;93.10;;;;;;5132348;27;20229;-74
2021/06/16 00:30:17;;;;;;;1.80;1.30;;;19.30;93.00;;;;;;5132447;27;20209;-74
2021/06/16 00:32:44;;;;;;;1.53;1.43;;;19.30;93.00;;;;;;5132302;27;20201;-75
2021/06/16 00:35:12;;;;;;;1.63;1.40;;;19.30;92.90;;;;;;5131862;27;20675;-75
2021/06/16 00:37:40;;;;;;;1.70;1.50;;;19.30;92.90;;;;;;5132205;27;20250;-74
2021/06/16 00:40:09;;;;;;;2.13;1.30;;;19.30;92.90;;;;;;5131629;27;20728;-74
2021/06/16 00:42:36;;;;;;;2.27;1.17;;;19.20;92.80;;;;;;5131955;27;20205;-74
2021/06/16 00:45:03;;;;;;;1.47;1.33;;;19.20;92.70;;;;;;5131265;27;20230;-76
2021/06/16 00:47:30;;;;;;;2.83;1.23;;;19.20;92.80;;;;;;5131863;27;20261;-74
2021/06/16 00:49:57;;;;;;;2.47;1.40;;;19.10;92.70;;;;;;5131721;27;20787;-73
2021/06/16 00:52:24;;;;;;;1.97;1.10;;;19.20;92.80;;;;;;5131845;27;20216;-74
2021/06/16 00:54:52;;;;;;;2.30;1.20;;;19.10;93.00;;;;;;5131577;27;20437;-74
2021/06/16 00:57:19;;;;;;;1.30;1.13;;;19.10;92.60;;;;;;5131583;27;20205;-74
2021/06/16 00:59:52;;;;;;;3.40;1.33;;;19.10;92.40;;;;;;5131753;27;20209;-74
2021/06/16 01:02:21;;;;;;;2.63;0.97;;;19.10;92.40;;;;;;5131826;27;20198;-74
2021/06/16 01:04:49;;;;;;;3.80;1.57;;;19.10;92.30;;;;;;5131128;27;20241;-74
2021/06/16 01:07:16;;;;;;;2.97;1.40;;;19.10;92.30;;;;;;5131170;27;20225;-74
2021/06/16 01:09:51;;;;;;;1.63;1.17;;;19.00;92.30;;;;;;5131416;27;20296;-74
2021/06/16 01:12:23;;;;;;;4.07;1.60;;;19.00;92.30;;;;;;5131092;27;20549;-74
2021/06/16 01:14:53;;;;;;;1.70;1.00;;;19.00;92.40;;;;;;5119405;27;20226;-73
2021/06/16 01:17:22;;;;;;;1.10;0.90;;;19.00;92.20;;;;;;5110939;28;20209;-73
2021/06/16 01:20:17;;;;;;;2.33;1.37;;;19.00;92.20;;;;;;5110436;28;20778;-73
2021/06/16 01:22:47;;;;;;;3.37;1.33;;;18.90;92.00;;;;;;5110650;28;20198;-73
2021/06/16 01:25:28;;;;;;;0.90;0.90;;;18.90;92.00;;;;;;5110407;28;20282;-73
2021/06/16 01:27:57;;;;;;;2.30;1.03;;;18.80;91.80;;;;;;5110412;28;20243;-73
2021/06/16 01:30:30;;;;;;;1.17;1.13;;;18.80;92.10;;;;;;5110600;28;20206;-73
2021/06/16 01:32:59;;;;;;;1.47;1.23;;;18.90;91.90;;;;;;5110504;28;20190;-73
2021/06/16 01:35:29;;;;;;;2.30;1.10;;;18.80;91.70;;;;;;5110537;28;20206;-73
2021/06/16 01:37:57;;;;;;;2.23;1.37;;;18.80;91.70;;;;;;5110374;28;20201;-73
2021/06/16 01:40:26;;;;;;;1.30;1.20;;;18.80;91.70;;;;;;5110355;28;20222;-73
2021/06/16 01:42:56;;;;;;;2.37;1.40;;;18.80;91.70;;;;;;5110078;28;20290;-73
2021/06/16 01:45:23;;;;;;;1.00;0.90;;;18.80;91.60;;;;;;5109934;28;20664;-74
2021/06/16 01:47:51;;;;;;;2.10;1.50;;;18.80;91.50;;;;;;5109842;28;20756;-73
2021/06/16 01:50:20;;;;;;;1.70;1.10;;;18.80;91.50;;;;;;5110294;28;20202;-75
2021/06/16 01:52:50;;;;;;;1.43;1.10;;;18.70;91.50;;;;;;5110219;28;20262;-74
2021/06/16 01:55:18;;;;;;;3.20;1.47;;;18.70;91.30;;;;;;5110171;28;20571;-74
2021/06/16 01:57:45;;;;;;;1.40;0.80;;;18.70;91.40;;;;;;5109067;28;20202;-74
2021/06/16 02:00:14;;;;;;;0.93;0.93;;;18.70;91.60;;;;;;5109716;28;20203;-74
2021/06/16 02:02:42;;;;;;;1.30;1.20;;;18.70;91.70;;;;;;5110020;28;20210;-74
2021/06/16 02:05:10;;;;;;;4.90;1.27;;;18.60;91.90;;;;;;5109373;28;20302;-74
2021/06/16 02:07:41;;;;;;;1.30;1.03;;;18.60;91.60;;;;;;5109925;28;20229;-74
2021/06/16 02:10:10;;;;;;;1.27;1.17;;;18.60;91.40;;;;;;5109652;28;20190;-76
2021/06/16 02:12:39;;;;;;;2.43;1.20;;;18.50;91.40;;;;;;5109715;28;20237;-75
2021/06/16 02:15:09;;;;;;;2.93;1.10;;;18.50;91.50;;;;;;5109718;28;20229;-75
2021/06/16 02:17:39;;;;;;;3.40;1.20;;;18.50;91.60;;;;;;5110134;27;20549;-76
2021/06/16 02:20:07;;;;;;;3.23;0.97;;;18.50;91.70;;;;;;5109570;28;20252;-76
2021/06/16 02:22:34;;;;;;;1.40;1.10;;;18.50;91.70;;;;;;5109753;28;20242;-75
2021/06/16 02:25:02;;;;;;;1.17;0.97;;;18.40;91.70;;;;;;5109344;28;20198;-76
2021/06/16 02:27:28;;;;;;;2.80;1.00;;;18.40;91.70;;;;;;5109325;28;20267;-76
2021/06/16 02:29:55;;;;;;;1.20;1.07;;;18.40;91.80;;;;;;5109304;28;20636;-76
2021/06/16 02:32:21;;;;;;;1.43;1.00;;;18.30;91.80;;;;;;5109538;28;20241;-75
2021/06/16 02:34:49;;;;;;;1.17;1.00;;;18.30;91.60;;;;;;5109398;27;20242;-75
2021/06/16 02:37:19;;;;;;;0.73;0.73;;;18.30;91.70;;;;;;5109199;27;20270;-75
2021/06/16 02:39:50;;;;;;;0.90;0.90;;;18.20;91.90;;;;;;5109054;28;20257;-75
2021/06/16 02:42:18;;;;;;;0.97;0.97;;;18.20;91.90;;;;;;5109203;28;20194;-76
2021/06/16 02:44:45;;;;;;;2.00;1.17;;;18.10;91.90;;;;;;5109053;28;20616;-74
2021/06/16 02:47:14;;;;;;;2.17;1.37;;;18.10;91.90;;;;;;5108849;28;20210;-74
2021/06/16 02:49:44;;;;;;;0.93;0.90;;;18.10;91.90;;;;;;5109054;28;20234;-74
2021/06/16 02:52:17;;;;;;;1.20;1.10;;;18.10;91.90;;;;;;5108936;28;20237;-74
2021/06/16 02:54:46;;;;;;;2.20;1.03;;;18.10;91.90;;;;;;5108996;28;20214;-75
2021/06/16 02:57:18;;;;;;;1.43;1.20;;;18.10;91.90;;;;;;5108942;28;20206;-75
2021/06/16 02:59:47;;;;;;;2.57;1.10;;;18.10;92.00;;;;;;5109089;28;20195;-74
2021/06/16 03:02:17;;;;;;;2.67;1.30;;;18.10;92.10;;;;;;5108725;28;20206;-76
2021/06/16 03:04:46;;;;;;;1.77;1.40;;;18.10;92.10;;;;;;5108622;28;20230;-76
2021/06/16 03:07:15;;;;;;;0.90;0.90;;;18.10;92.20;;;;;;5108149;28;20267;-74
2021/06/16 03:09:44;;;;;;;2.57;1.00;;;18.10;92.30;;;;;;5108823;28;20198;-72
2021/06/16 03:12:12;;;;;;;0.93;0.93;;;18.00;92.30;;;;;;5108699;28;20282;-75
2021/06/16 03:14:40;;;;;;;1.27;0.90;;;18.00;92.50;;;;;;5108705;28;20226;-74
2021/06/16 03:17:07;;;;;;;1.90;1.00;;;18.00;92.40;;;;;;5108100;28;20202;-74
2021/06/16 03:19:35;;;;;;;2.07;1.40;;;18.00;92.50;;;;;;5127188;28;20215;-74
2021/06/16 03:22:04;;;;;;;4.07;1.10;;;18.00;92.40;;;;;;5127500;28;20205;-74
2021/06/16 03:24:34;;;;;;;3.10;1.00;;;18.00;92.50;;;;;;5127264;28;20219;-74
2021/06/16 03:27:00;;;;;;;1.90;1.17;;;18.00;92.60;;;;;;5127003;27;20282;-74
2021/06/16 03:29:28;;;;;;;1.00;1.00;;;18.00;92.60;;;;;;5126300;27;20278;-73
2021/06/16 03:31:57;;;;;;;1.13;1.00;;;17.80;92.80;;;;;;5126278;27;20240;-73
2021/06/16 03:34:24;;;;;;;2.57;1.10;;;17.80;92.70;;;;;;5126024;28;20925;-73
2021/06/16 03:36:52;;;;;;;1.57;1.00;;;17.80;92.60;;;;;;5126472;28;20205;-73
2021/06/16 03:39:19;;;;;;;2.07;1.10;;;17.60;92.60;;;;;;5125889;28;20289;-73
2021/06/16 03:41:48;;;;;;;1.73;1.20;;;17.70;92.80;;;;;;5126546;27;20201;-73
2021/06/16 03:44:16;;;;;;;1.77;0.90;;;17.80;92.70;;;;;;5126466;28;20629;-73
2021/06/16 03:46:43;;;;;;;1.93;1.33;;;17.90;92.60;;;;;;5126743;28;20205;-73
2021/06/16 03:49:13;;;;;;;2.47;1.30;;;17.90;92.50;;;;;;5126727;27;20265;-73
2021/06/16 03:51:42;;;;;;;1.57;1.07;;;18.00;92.50;;;;;;5126620;28;20212;-74
2021/06/16 03:54:12;;;;;;;1.53;1.10;;;18.10;92.60;;;;;;5126288;28;20636;-74
2021/06/16 03:56:39;;;;;;;4.20;1.10;;;18.10;92.60;;;;;;5126652;28;20201;-74
2021/06/16 03:59:08;;;;;;;2.20;0.97;;;18.10;92.50;;;;;;5125981;28;20209;-75
2021/06/16 04:01:37;;;;;;;4.00;1.30;;;18.20;92.50;;;;;;5122412;27;20233;-74
2021/06/16 04:04:04;;;;;;;1.67;1.00;;;18.30;92.30;;;;;;5126642;28;20755;-73
2021/06/16 04:06:31;;;;;;;0.93;0.93;;;18.20;92.00;;;;;;5127765;28;20281;-73
2021/06/16 04:08:58;;;;;;;1.20;1.20;;;18.30;92.00;;;;;;5127343;28;20256;-73
2021/06/16 04:11:24;;;;;;;1.93;1.07;;;18.30;92.10;;;;;;5127458;27;20235;-73
2021/06/16 04:13:51;;;;;;;3.20;1.20;;;18.30;92.10;;;;;;5127626;28;20217;-73
2021/06/16 04:16:19;;;;;;;3.63;1.20;;;18.30;92.00;;;;;;5127359;27;20277;-73
2021/06/16 04:18:47;;;;;;;2.90;1.10;;;18.40;92.10;;;;;;5125518;27;20664;-73
2021/06/16 04:21:13;;;;;;;1.60;1.03;;;18.40;92.40;;;;;;5130012;27;20301;-73
2021/06/16 04:23:40;;;;;;;1.50;1.40;;;18.40;92.40;;;;;;5130909;27;20734;-73
2021/06/16 04:26:06;;;;;;;2.00;1.30;;;18.40;92.30;;;;;;5130853;27;20201;-73
2021/06/16 04:28:33;;;;;;;1.27;1.10;;;18.40;92.50;;;;;;5130881;27;20302;-73
2021/06/16 04:31:00;;;;;;;0.90;0.90;;;18.40;92.40;;;;;;5130733;27;20216;-73
2021/06/16 04:33:28;;;;;;;2.20;1.23;;;18.40;92.40;;;;;;5130806;27;20201;-73
2021/06/16 04:35:55;;;;;;;2.90;1.00;;;18.40;92.60;;;;;;5130447;27;20738;-73
2021/06/16 04:38:22;;;;;;;2.43;1.30;;;18.40;92.50;;;;;;5128261;27;20222;-73
2021/06/16 04:40:48;;;;;;;3.30;1.27;;;18.40;92.60;;;;;;5130767;27;20255;-73
2021/06/16 04:43:15;;;;;;;1.47;1.10;;;18.40;92.40;;;;;;5130499;27;20289;-73
2021/06/16 04:45:41;;;;;;;2.37;1.20;;;18.40;92.60;;;;;;5120563;27;20251;-74
2021/06/16 04:48:09;;;;;;;2.10;1.40;;;18.40;92.20;;;;;;5130249;27;20252;-72
2021/06/16 04:50:37;;;;;;;2.33;0.97;;;18.40;92.60;;;;;;5130848;27;20202;-72
2021/06/16 04:53:04;;;;;;;1.93;1.20;;;18.40;92.50;;;;;;5130799;27;20284;-73
2021/06/16 04:55:31;;;;;;;3.10;1.33;;;18.50;92.50;;;;;;5131011;27;20255;-73
2021/06/16 04:57:57;;;;;;;5.73;1.33;;;18.50;92.40;;;;;;5131289;27;20202;-73
2021/06/16 05:00:24;;;;;;;1.17;0.80;;;18.50;92.40;;;;;;5130374;27;20202;-73
2021/06/16 05:02:54;;;;;;;1.40;1.10;;;18.50;92.20;;;;;;5129856;27;20250;-73
2021/06/16 05:05:21;;;;;;;1.97;1.13;;;18.50;92.10;;;;;;5126904;27;20322;-73
2021/06/16 05:07:49;;;;;;;2.60;1.30;;;18.50;92.20;;;;;;5129563;27;20197;-73
2021/06/16 05:10:15;;;;;;;2.53;1.53;;;18.50;92.30;;;;;;5129400;27;20341;-73
2021/06/16 05:12:43;;;;;;;1.37;1.00;;;18.50;92.40;;;;;;5129570;27;20573;-73
2021/06/16 05:15:11;;;;;;;1.73;1.20;;;18.50;92.20;;;;;;5129324;27;20594;-73
2021/06/16 05:17:38;;;;;;;1.43;1.10;;;18.50;92.20;;;;;;5129515;27;20189;-73
2021/06/16 05:20:07;;;;;;;2.73;1.00;;;18.50;92.00;;;;;;5129403;27;20197;-73
2021/06/16 05:22:35;;;;;;;4.57;1.07;;;18.50;91.90;;;;;;5129388;27;20321;-73
2021/06/16 05:25:05;;;;;;;3.00;1.57;;;18.50;92.10;;;;;;5129082;27;20198;-73
2021/06/16 05:27:31;;;;;;;4.57;1.40;;;18.50;91.60;;;;;;5130199;27;20197;-73
2021/06/16 05:29:58;;;;;;;3.53;1.37;;;18.60;91.80;;;;;;5126529;27;20223;-73
2021/06/16 05:32:25;;;;;;;2.43;1.50;;;18.60;91.80;;;;;;5129258;27;20802;-73
2021/06/16 05:34:52;;;;;;;2.70;1.20;;;18.60;91.90;;;;;;5129957;27;20257;-73
2021/06/16 05:37:19;;;;;;;2.83;1.10;;;18.70;92.00;;;;;;5129811;27;20209;-73
2021/06/16 05:39:46;;;;;;;4.03;1.37;;;18.70;92.10;;;;;;5129534;27;20281;-73
2021/06/16 05:42:14;;;;;;;2.20;1.20;;;18.70;92.00;;;;;;5129353;27;20732;-73
2021/06/16 05:44:41;;;;;;;1.70;1.07;;;18.70;91.60;;;;;;5127186;27;20278;-73
2021/06/16 05:47:07;;;;;;;1.80;1.20;;;18.70;91.60;;;;;;5129301;27;20593;-73
2021/06/16 05:49:34;;;;;;;2.87;1.30;;;18.70;91.40;;;;;;5129319;27;20278;-73
2021/06/16 05:52:01;;;;;;;1.47;1.10;;;18.60;91.40;;;;;;5129118;27;20670;-74
2021/06/16 05:54:28;;;;;;;1.23;1.03;;;18.70;91.50;;;;;;5129320;27;20190;-73
2021/06/16 05:56:54;;;;;;;2.03;1.23;;;18.80;91.60;;;;;;5129188;27;20194;-73
2021/06/16 05:59:22;;;;;;;2.07;0.90;;;18.70;91.70;;;;;;5127367;27;20206;-73
2021/06/16 06:01:49;;;;;;;3.63;1.20;;;18.70;91.60;;;;;;5129377;27;20209;-73
2021/06/16 06:04:16;;;;;;;1.40;1.20;;;18.80;91.60;;;;;;5128884;27;20500;-73
2021/06/16 06:06:42;;;;;;;1.83;1.00;;;18.90;91.30;;;;;;5129080;27;20231;-74
2021/06/16 06:09:10;;;;;;;4.50;1.63;;;18.90;91.00;;;;;;5129084;27;20209;-76
2021/06/16 06:11:37;;;;;;;2.37;1.30;;;19.00;91.20;;;;;;5128770;27;20194;-73
2021/06/16 06:14:04;;;;;;;9.23;1.70;;;19.10;91.30;;;;;;5128933;27;20513;-73
2021/06/16 06:16:32;;;;;;;3.43;1.40;;;19.10;91.50;;;;;;5129424;27;20201;-73
2021/06/16 06:18:59;;;;;;;3.53;1.13;;;19.10;91.40;;;;;;5130038;27;20209;-73
2021/06/16 06:21:30;;;;;;;1.30;1.20;;;19.10;91.50;;;;;;5129660;27;20861;-73
2021/06/16 06:23:56;;;;;;;3.73;1.30;;;19.10;91.60;;;;;;5126621;27;20198;-73
2021/06/16 06:26:23;;;;;;;2.73;1.20;;;19.20;91.50;;;;;;5128896;27;20201;-73
2021/06/16 06:28:50;;;;;;;1.90;1.60;;;19.30;91.40;;;;;;5128653;27;20695;-73
2021/06/16 06:31:16;;;;;;;5.93;1.07;;;19.30;91.40;;;;;;5128866;27;20247;-73
2021/06/16 06:33:44;;;;;;;4.07;1.53;;;19.30;91.40;;;;;;5128664;27;20229;-73
2021/06/16 06:36:11;;;;;;;2.27;1.43;;;19.40;91.60;;;;;;5128525;27;20225;-73
2021/06/16 06:38:38;;;;;;;2.40;1.30;;;19.40;91.60;;;;;;5128737;27;20221;-73
2021/06/16 06:41:04;;;;;;;1.63;1.37;;;19.50;91.60;;;;;;5128585;27;20201;-73
2021/06/16 06:43:31;;;;;;;4.07;1.37;;;19.40;91.90;;;;;;5127731;27;20611;-73
2021/06/16 06:45:58;;;;;;;2.10;1.43;;;19.50;91.70;;;;;;5128329;27;20258;-73
2021/06/16 06:48:24;;;;;;;2.87;1.33;;;19.60;91.70;;;;;;5128422;27;20206;-73
2021/06/16 06:50:53;;;;;;;2.70;1.33;;;19.60;91.60;;;;;;5128290;27;20596;-73
2021/06/16 06:53:21;;;;;;;10.13;1.90;;;19.60;91.70;;;;;;5128061;27;20197;-73
2021/06/16 06:55:48;;;;;;;3.80;1.40;;;19.60;92.10;;;;;;5128113;27;20621;-73
2021/06/16 06:58:15;;;;;;;3.93;1.50;;;19.70;92.20;;;;;;5128035;27;20255;-72
2021/06/16 07:00:41;;;;;;;5.20;1.60;;;19.70;91.70;;;;;;5128399;27;20631;-72
2021/06/16 07:03:08;;;;;;;2.13;1.50;;;19.70;91.80;;;;;;5128039;27;20667;-72
2021/06/16 07:05:35;;;;;;;5.27;1.20;;;19.80;92.10;;;;;;5125079;27;20377;-72
2021/06/16 07:08:04;;;;;;;3.50;1.10;;;19.80;91.80;;;;;;5128121;27;20197;-72
2021/06/16 07:10:30;;;;;;;1.97;1.40;;;19.90;91.90;;;;;;5129073;27;20233;-72
2021/06/16 07:12:57;;;;;;;2.30;1.37;;;19.90;91.90;;;;;;5128902;27;20312;-72
2021/06/16 07:15:24;;;;;;;3.87;1.40;;;19.90;91.90;;;;;;5129157;28;20209;-72
2021/06/16 07:17:50;;;;;;;3.17;1.30;;;19.90;91.80;;;;;;5129300;28;20209;-72
2021/06/16 07:20:18;;;;;;;2.43;1.20;;;20.00;91.60;;;;;;5128839;27;20257;-72
2021/06/16 07:22:44;;;;;;;5.50;1.40;;;20.00;92.10;;;;;;5128902;28;20212;-72
2021/06/16 07:25:13;;;;;;;2.33;1.53;;;20.10;91.70;;;;;;5128797;28;20209;-72
2021/06/16 07:27:39;;;;;;;2.63;1.40;;;20.10;91.80;;;;;;5128972;28;20201;-72
2021/06/16 07:30:08;;;;;;;4.17;1.63;;;20.10;92.00;;;;;;5128466;28;20229;-71
2021/06/16 07:32:36;;;;;;;4.70;1.80;;;20.10;92.00;;;;;;5128845;27;20205;-72
2021/06/16 07:35:03;;;;;;;13.53;2.30;;;20.10;92.40;;;;;;5128480;28;20207;-73
2021/06/16 07:37:30;;;;;;;4.93;1.43;;;20.20;92.50;;;;;;5128739;27;20225;-72
2021/06/16 07:39:57;;;;;;;7.47;1.83;;;20.20;92.20;;;;;;5128601;28;20250;-72
2021/06/16 07:42:25;;;;;;;7.57;1.63;;;20.30;92.30;;;;;;5128475;28;20952;-72
2021/06/16 07:44:52;;;;;;;7.97;1.93;;;20.30;92.40;;;;;;5128949;27;20205;-73
2021/06/16 07:47:21;;;;;;;3.53;1.47;;;20.30;92.60;;;;;;5128898;28;20209;-72
2021/06/16 07:49:47;;;;;;;4.57;2.20;;;20.30;92.60;;;;;;5128694;28;20710;-73
2021/06/16 07:52:14;;;;;;;2.20;1.60;;;20.30;92.80;;;;;;5128912;28;20202;-73
2021/06/16 07:54:40;;;;;;;4.00;1.60;;;20.40;93.00;;;;;;5129274;27;21058;-73
2021/06/16 07:57:07;;;;;;;5.33;1.40;;;20.40;93.10;;;;;;5132344;27;20254;-73
2021/06/16 07:59:36;;;;;;;4.63;2.93;;;20.50;93.20;;;;;;5132782;27;20269;-73
2021/06/16 08:02:04;;;;;;;3.27;1.80;;;20.50;93.50;;;;;;5132552;27;20258;-73
2021/06/16 08:04:32;;;;;;;4.27;1.60;;;20.60;93.40;;;;;;5132143;27;20320;-73
2021/06/16 08:06:59;;;;;;;4.93;1.43;;;20.60;93.10;;;;;;5132539;27;20269;-74
2021/06/16 08:09:25;;;;;;;2.83;1.23;;;20.60;92.90;;;;;;5132378;27;20286;-75
2021/06/16 08:11:52;;;;;;;3.10;2.10;;;20.70;93.00;;;;;;5132209;27;20205;-73
2021/06/16 08:14:19;;;;;;;7.93;1.60;;;20.70;93.00;;;;;;5131891;27;20252;-73
2021/06/16 08:16:47;;;;;;;2.70;1.50;;;20.70;92.90;;;;;;5131411;27;20217;-73
2021/06/16 08:19:13;;;;;;;5.33;1.73;;;20.70;93.10;;;;;;5128205;27;20206;-73
2021/06/16 08:21:40;;;;;;;4.53;2.00;;;20.80;93.40;;;;;;5131079;27;20592;-73
2021/06/16 08:24:07;;;;;;;5.63;2.07;;;20.80;93.90;;;;;;5130750;27;20225;-73
2021/06/16 08:26:35;;;;;;;3.70;1.67;;;20.90;93.70;;;;;;5128246;27;20497;-73
2021/06/16 08:29:01;;;;;;;4.87;1.70;;;21.00;94.10;;;;;;5130797;27;20253;-73
2021/06/16 08:31:28;;;;;;;5.50;1.70;;;21.00;93.60;;;;;;5131042;27;20201;-73
2021/06/16 08:33:56;;;;;;;4.97;1.73;;;21.10;93.80;;;;;;5130809;27;20986;-73
2021/06/16 08:36:23;;;;;;;6.20;2.07;;;21.10;93.90;;;;;;5130992;27;20209;-73
2021/06/16 08:38:50;;;;;;;2.43;1.70;;;21.20;93.80;;;;;;5130488;27;20217;-73
2021/06/16 08:41:17;;;;;;;8.50;1.80;;;21.30;93.60;;;;;;5130583;27;20198;-73
2021/06/16 08:43:47;;;;;;;4.43;1.60;;;21.30;93.80;;;;;;5130596;27;20713;-73
2021/06/16 08:46:16;;;;;;;3.50;1.60;;;21.40;93.90;;;;;;5116806;27;20190;-73
2021/06/16 08:48:45;;;;;;;4.13;1.70;;;21.60;93.70;;;;;;5130640;27;20202;-73
2021/06/16 08:51:15;;;;;;;8.93;2.50;;;21.60;94.00;;;;;;5130401;27;20229;-73
2021/06/16 08:53:43;;;;;;;7.93;1.90;;;21.70;93.70;;;;;;5130329;27;20190;-73
2021/06/16 08:56:10;;;;;;;6.95;2.03;;;21.70;93.60;;;;;;5130073;27;20194;-73
2021/06/16 08:58:38;;;;;;;14.70;2.03;;;21.70;93.20;;;;;;5130318;27;20254;-74
2021/06/16 09:01:06;;;;;;;3.50;1.60;;;21.70;93.20;;;;;;5130108;27;20270;-73
2021/06/16 09:03:33;;;;;;;4.87;1.80;;;21.80;93.40;;;;;;5130495;27;20270;-74
2021/06/16 09:06:06;;;;;;;1.63;1.50;;;21.80;93.30;;;;;;5129020;27;20248;-73
2021/06/16 09:08:49;;;;;;;3.23;1.90;;;21.90;93.60;;;;;;5130388;27;20197;-73
2021/06/16 09:11:16;;;;;;;3.90;2.33;;;22.00;93.50;;;;;;5129953;27;20243;-73
2021/06/16 09:13:42;;;;;;;2.47;2.10;;;22.10;93.40;;;;;;5130228;27;20213;-73
2021/06/16 09:16:26;;;;;;;4.73;1.80;;;22.10;93.00;;;;;;5129964;27;20193;-73
2021/06/16 09:18:52;;;;;;;3.90;1.70;;;22.10;93.00;;;;;;5129763;27;20278;-73
2021/06/16 09:21:33;;;;;;;2.67;1.90;;;22.20;92.80;;;;;;5129174;27;20258;-74
2021/06/16 09:24:01;;;;;;;2.80;1.60;;;22.30;92.20;;;;;;5127480;27;20295;-72
2021/06/16 09:26:31;;;;;;;3.60;2.00;;;22.30;92.30;;;;;;5129946;27;20310;-72
2021/06/16 09:28:58;;;;;;;5.25;2.00;;;22.30;92.50;;;;;;5127532;27;20193;-73
2021/06/16 09:31:25;;;;;;;7.07;2.13;;;22.40;92.20;;;;;;5129696;27;20228;-73
2021/06/16 09:33:54;;;;;;;4.18;1.75;;;22.40;91.90;;;;;;5129712;27;20193;-73
2021/06/16 09:36:22;;;;;;;2.10;1.90;;;22.50;91.90;;;;;;5129216;27;20205;-73
2021/06/16 09:38:50;;;;;;;5.67;2.40;;;22.50;91.40;;;;;;5129358;27;20213;-71
2021/06/16 09:41:21;;;;;;;3.97;1.90;;;22.60;91.20;;;;;;5129562;27;20290;-71
2021/06/16 09:43:53;;;;;;;25.27;3.28;;;22.60;90.60;;;;;;5129443;27;20190;-71
2021/06/16 09:46:19;;;;;;;3.53;1.85;;;22.60;90.80;;;;;;5127355;27;20619;-71
2021/06/16 09:48:47;;;;;;;6.45;2.05;;;22.80;90.80;;;;;;5129889;27;20205;-72
2021/06/16 09:51:20;;;;;;;2.53;1.80;;;22.80;90.80;;;;;;5126539;27;20290;-74
2021/06/16 09:54:02;;;;;;;11.05;2.60;;;22.90;91.30;;;;;;5129817;27;20205;-73
2021/06/16 09:56:32;;;;;;;7.25;2.40;;;23.10;90.80;;;;;;5128497;27;20186;-74
2021/06/16 09:59:00;;;;;;;2.55;1.70;;;23.10;90.90;;;;;;5129393;27;20244;-73
2021/06/16 10:01:45;;;;;;;2.08;1.67;;;23.20;90.50;;;;;;5129747;27;20205;-72
2021/06/16 10:04:30;;;;;;;2.28;1.63;;;23.20;90.30;;;;;;5128850;27;20229;-73
2021/06/16 10:07:14;;;;;;;3.03;1.85;;;23.20;90.40;;;;;;5126909;27;20190;-73
2021/06/16 10:09:48;;;;;;;2.95;1.90;;;23.30;89.00;;;;;;5127263;27;20601;-73
2021/06/16 10:12:16;;;;;;;5.22;2.47;;;23.30;90.20;;;;;;5126767;27;20196;-73
2021/06/16 10:14:44;;;;;;;4.15;2.33;;;23.40;90.70;;;;;;5128659;27;20207;-73
2021/06/16 10:17:11;;;;;;;4.95;2.15;;;23.50;90.70;;;;;;5128454;27;20243;-73
2021/06/16 10:19:37;;;;;;;2.92;1.90;;;23.60;90.10;;;;;;5128545;27;20258;-74
2021/06/16 10:22:05;;;;;;;3.95;1.50;;;23.70;90.00;;;;;;5129360;27;20697;-75
2021/06/16 10:24:31;;;;;;;3.30;1.63;;;23.80;90.20;;;;;;5128504;27;20193;-73
2021/06/16 10:27:01;;;;;;;1.85;1.45;;;23.90;87.60;;;;;;5128712;27;20247;-74
2021/06/16 10:29:32;;;;;;;19.05;3.15;;;24.00;87.80;;;;;;5129022;27;20233;-74
2021/06/16 10:32:04;;;;;;;2.28;1.75;;;24.10;88.40;;;;;;5129519;27;20610;-74
2021/06/16 10:34:55;;;;;;;1.65;1.50;;;24.20;87.30;;;;;;5129766;27;20190;-73
2021/06/16 10:37:25;;;;;;;2.70;1.50;;;24.20;86.40;;;;;;5129752;27;20221;-74
2021/06/16 10:40:34;;;;;;;2.00;1.65;;;24.20;86.40;;;;;;5129645;27;20201;-74
2021/06/16 10:43:25;;;;;;;5.43;1.67;;;24.30;85.90;;;;;;5129221;27;20197;-74
2021/06/16 10:45:55;;;;;;;4.35;1.83;;;24.60;85.90;;;;;;5119026;27;20299;-74
2021/06/16 10:48:22;;;;;;;2.78;1.65;;;24.60;84.50;;;;;;5108960;28;20194;-73
2021/06/16 10:51:02;;;;;;;5.82;1.70;;;24.80;84.50;;;;;;5108950;28;20232;-73
2021/06/16 10:53:29;;;;;;;2.30;1.73;;;24.80;84.40;;;;;;5108888;28;20206;-74
2021/06/16 10:56:07;;;;;;;2.53;1.73;;;24.90;84.00;;;;;;5108305;28;20665;-74
2021/06/16 10:58:43;;;;;;;2.72;1.60;;;25.00;84.00;;;;;;5108554;28;20202;-73
2021/06/16 11:01:13;;;;;;;4.22;1.80;;;25.00;84.10;;;;;;5108766;28;20194;-74
2021/06/16 11:04:02;;;;;;;5.28;1.70;;;25.00;84.30;;;;;;5108492;28;20190;-73
2021/06/16 11:06:39;;;;;;;2.90;1.77;;;25.20;84.00;;;;;;5108572;28;20721;-75
2021/06/16 11:09:07;;;;;;;5.22;1.67;;;25.20;83.80;;;;;;5108049;28;20238;-74
2021/06/16 11:12:08;;;;;;;2.97;1.75;;;25.40;82.60;;;;;;5108346;28;20275;-74
2021/06/16 11:14:46;;;;;;;4.40;2.05;;;25.60;81.80;;;;;;5074601;28;20206;-75
2021/06/16 11:17:44;;;;;;;1.77;1.38;;;25.80;81.60;;;;;;5108161;28;20194;-75
2021/06/16 11:20:14;;;;;;;1.92;1.67;;;25.90;82.20;;;;;;5108475;28;20215;-75
2021/06/16 11:22:55;;;;;;;3.17;1.60;;;26.10;82.60;;;;;;5108598;28;20873;-75
2021/06/16 11:25:28;;;;;;;4.00;1.70;;;26.10;82.20;;;;;;5108429;28;20289;-74
2021/06/16 11:28:11;;;;;;;8.27;1.98;;;26.20;81.00;;;;;;5108581;28;20198;-74
2021/06/16 11:30:41;;;;;;;4.50;3.00;;;26.30;81.40;;;;;;5112675;28;20232;-74
2021/06/16 11:33:31;;;;;;;7.45;2.00;;;26.40;81.40;;;;;;5112459;28;20252;-75
2021/06/16 11:36:00;;;;;;;2.47;1.70;;;26.40;82.00;;;;;;5112762;28;20578;-75
2021/06/16 11:38:32;;;;;;;52.15;7.88;;;26.30;82.00;;;;;;5112555;28;20226;-74
2021/06/16 11:41:05;;;;;;;2.20;2.00;;;26.30;82.30;;;;;;5112212;28;20639;-75
2021/06/16 11:43:37;;;;;;;5.43;1.83;;;26.20;81.70;;;;;;5112436;28;20190;-74
2021/06/16 11:46:11;;;;;;;3.85;1.60;;;26.20;81.80;;;;;;5111927;28;20672;-74
2021/06/16 11:48:39;;;;;;;2.05;1.60;;;26.20;82.00;;;;;;5112561;28;20202;-74
2021/06/16 11:51:07;;;;;;;2.80;1.80;;;26.10;82.30;;;;;;5112082;28;20233;-75
2021/06/16 11:53:35;;;;;;;3.13;1.75;;;26.10;82.90;;;;;;5111994;28;20656;-75
2021/06/16 11:56:04;;;;;;;4.72;1.70;;;26.10;82.60;;;;;;5112077;28;20206;-74
2021/06/16 11:58:33;;;;;;;1.80;1.38;;;26.00;82.20;;;;;;5111810;28;20660;-74
2021/06/16 12:01:05;;;;;;;7.20;2.20;;;26.00;82.90;;;;;;5112325;28;20266;-74
2021/06/16 12:03:32;;;;;;;3.28;2.13;;;26.00;82.40;;;;;;5115582;27;20564;-75
2021/06/16 12:06:05;;;;;;;3.60;1.90;;;25.90;82.00;;;;;;5130869;27;20703;-75
2021/06/16 12:08:32;;;;;;;3.80;1.95;;;25.90;82.20;;;;;;5131741;27;20208;-75
2021/06/16 12:11:00;;;;;;;3.15;2.10;;;25.80;83.00;;;;;;5131043;27;20686;-75
2021/06/16 12:13:27;;;;;;;1.95;1.70;;;25.90;82.70;;;;;;5131377;27;20253;-74
2021/06/16 12:15:54;;;;;;;5.97;2.00;;;25.90;82.70;;;;;;5131343;27;20202;-75
2021/06/16 12:18:21;;;;;;;5.55;2.03;;;25.90;81.60;;;;;;5131088;27;20254;-74
2021/06/16 12:20:50;;;;;;;3.60;2.17;;;25.80;81.90;;;;;;5131771;27;20574;-75
2021/06/16 12:23:24;;;;;;;3.35;1.83;;;25.80;82.30;;;;;;5131979;27;20209;-75
2021/06/16 12:25:51;;;;;;;2.05;1.80;;;25.80;82.70;;;;;;5132074;27;20185;-75
2021/06/16 12:28:18;;;;;;;4.68;2.03;;;25.80;82.50;;;;;;5131239;27;20233;-75
2021/06/16 12:30:45;;;;;;;2.63;1.65;;;25.90;82.60;;;;;;5131196;27;20243;-75
2021/06/16 12:33:21;;;;;;;2.97;1.73;;;26.00;82.40;;;;;;5131020;27;20209;-75
2021/06/16 12:35:58;;;;;;;1.90;1.80;;;26.10;82.00;;;;;;5130897;27;20697;-75
2021/06/16 12:38:40;;;;;;;2.65;1.70;;;26.10;81.80;;;;;;5128852;27;20253;-75
2021/06/16 12:41:30;;;;;;;3.95;2.20;;;26.10;82.40;;;;;;5127961;27;20708;-75
2021/06/16 12:44:20;;;;;;;6.97;2.80;;;26.10;83.10;;;;;;5119421;27;20190;-75
2021/06/16 12:46:57;;;;;;;2.08;1.90;;;26.10;83.10;;;;;;5118851;27;20212;-75
2021/06/16 12:49:25;;;;;;;2.72;1.95;;;26.20;83.30;;;;;;5130889;27;20207;-75
2021/06/16 12:51:53;;;;;;;4.60;1.90;;;26.10;84.10;;;;;;5130544;27;20229;-75
2021/06/16 12:54:26;;;;;;;7.70;2.10;;;26.20;84.00;;;;;;5130745;27;20340;-75
2021/06/16 12:57:03;;;;;;;3.63;2.22;;;26.30;82.70;;;;;;5130475;27;20201;-75